Time,TemperatureF,DewpointF,PressureIn,WindDirection,WindDirectionDegrees,WindSpeedMPH,WindSpeedGustMPH,Humidity,HourlyPrecipIn,Conditions,Clouds,dailyrainin,SolarRadiationWatts/m^2,SoftwareType,DateUTC
2013-03-23 00:22:00,21.0,15.0,-100.00,NE,53,0.0,2.0,78,0.00,,,0.00,1.000000,,2013-03-23 07:22:00,
2013-03-23 01:12:00,20.0,16.0,-100.00,East,82,0.0,2.0,83,-99.99,,,0.00,1.000000,,2013-03-23 08:12:00,
2013-03-23 01:22:00,20.0,16.0,-100.00,East,82,0.0,2.0,83,-99.99,,,0.00,1.000000,,2013-03-23 08:22:00,
2013-03-23 02:12:00,18.0,15.0,-100.00,ENE,68,0.0,2.0,86,-99.99,,,0.00,1.000000,,2013-03-23 09:12:00,
2013-03-23 02:22:00,18.0,15.0,-100.00,ENE,68,0.0,2.0,86,-99.99,,,0.00,1.000000,,2013-03-23 09:22:00,
2013-03-23 03:12:00,17.0,13.0,-100.00,SW,235,1.0,3.0,85,-99.99,,,0.00,1.000000,,2013-03-23 10:12:00,
2013-03-23 03:23:00,17.0,13.0,-100.00,SW,235,1.0,3.0,85,-99.99,,,0.00,1.000000,,2013-03-23 10:23:00,
2013-03-23 04:22:00,16.0,13.0,-100.00,NE,34,0.0,2.0,86,-99.99,,,0.00,1.000000,,2013-03-23 11:22:00,
2013-03-23 05:12:00,15.0,12.0,-100.00,SE,139,0.0,0.0,86,-99.99,,,0.00,1.000000,,2013-03-23 12:12:00,
2013-03-23 05:22:00,15.0,12.0,-100.00,SE,139,0.0,0.0,86,-99.99,,,0.00,1.000000,,2013-03-23 12:22:00,
2013-03-23 06:12:00,13.0,9.0,-100.00,SSE,150,0.0,0.0,83,-99.99,,,0.00,1.000000,,2013-03-23 13:12:00,
2013-03-23 06:22:00,13.0,9.0,-100.00,SSE,150,0.0,0.0,83,-99.99,,,0.00,1.000000,,2013-03-23 13:22:00,
2013-03-23 07:12:00,13.0,9.0,-100.00,ESE,113,0.0,0.0,85,-99.99,,,0.00,1.000000,,2013-03-23 14:12:00,
2013-03-23 07:22:00,13.0,9.0,-100.00,ESE,113,0.0,0.0,85,-99.99,,,0.00,1.000000,,2013-03-23 14:22:00,
2013-03-23 08:22:00,15.0,11.0,-100.00,ESE,121,0.0,2.0,85,-99.99,,,0.00,16.000000,,2013-03-23 15:22:00,
2013-03-23 08:51:00,28.0,13.0,-100.00,ESE,122,2.0,3.0,52,-99.99,,,0.00,172.000000,,2013-03-23 15:51:00,
2013-03-23 09:12:00,28.0,13.0,-100.00,ESE,122,2.0,3.0,52,-99.99,,,0.00,172.000000,,2013-03-23 16:12:00,
2013-03-23 09:22:00,28.0,13.0,-100.00,ESE,122,2.0,3.0,52,-99.99,,,0.00,172.000000,,2013-03-23 16:22:00,
2013-03-23 09:32:00,28.0,13.0,-100.00,ESE,122,2.0,3.0,52,-99.99,,,0.00,172.000000,,2013-03-23 16:32:00,
2013-03-23 09:42:00,28.0,13.0,-100.00,ESE,122,2.0,3.0,52,-99.99,,,0.00,172.000000,,2013-03-23 16:42:00,
2013-03-23 09:51:00,39.0,11.0,-100.00,NE,43,2.0,3.0,31,0.00,,,0.00,461.000000,,2013-03-23 16:51:00,
2013-03-23 10:22:00,39.0,11.0,-100.00,NE,43,2.0,3.0,31,0.00,,,0.00,461.000000,,2013-03-23 17:22:00,
2013-03-23 10:32:00,39.0,11.0,-100.00,NE,43,2.0,3.0,31,0.00,,,0.00,461.000000,,2013-03-23 17:32:00,
2013-03-23 10:42:00,39.0,11.0,-100.00,NE,43,2.0,3.0,31,0.00,,,0.00,461.000000,,2013-03-23 17:42:00,
2013-03-23 10:51:00,44.0,8.0,-100.00,NNW,328,2.0,4.0,22,0.00,,,0.00,659.000000,,2013-03-23 17:51:00,
2013-03-23 11:22:00,44.0,8.0,-100.00,NNW,328,2.0,4.0,22,0.00,,,0.00,659.000000,,2013-03-23 18:22:00,
2013-03-23 11:32:00,44.0,8.0,-100.00,NNW,328,2.0,4.0,22,0.00,,,0.00,659.000000,,2013-03-23 18:32:00,
2013-03-23 11:42:00,44.0,8.0,-100.00,NNW,328,2.0,4.0,22,0.00,,,0.00,659.000000,,2013-03-23 18:42:00,
2013-03-23 11:51:00,51.0,6.0,-100.00,NNW,343,3.0,5.0,16,0.00,,,0.00,795.000000,,2013-03-23 18:51:00,
2013-03-23 12:12:00,51.0,6.0,-100.00,NNW,343,3.0,5.0,16,0.00,,,0.00,795.000000,,2013-03-23 19:12:00,
2013-03-23 12:22:00,51.0,6.0,-100.00,NNW,343,3.0,5.0,16,0.00,,,0.00,795.000000,,2013-03-23 19:22:00,
2013-03-23 12:42:00,51.0,6.0,-100.00,NNW,343,3.0,5.0,16,0.00,,,0.00,795.000000,,2013-03-23 19:42:00,
2013-03-23 13:12:00,54.0,1.0,-100.00,WSW,253,4.0,11.0,11,0.00,,,0.00,874.000000,,2013-03-23 20:12:00,
2013-03-23 13:22:00,54.0,1.0,-100.00,WSW,253,4.0,11.0,11,0.00,,,0.00,874.000000,,2013-03-23 20:22:00,
2013-03-23 13:51:00,54.0,3.0,-100.00,WSW,258,5.0,10.0,12,0.00,,,0.00,884.000000,,2013-03-23 20:51:00,
2013-03-23 14:12:00,54.0,3.0,-100.00,WSW,258,5.0,10.0,12,0.00,,,0.00,884.000000,,2013-03-23 21:12:00,
2013-03-23 14:22:00,54.0,3.0,-100.00,WSW,258,5.0,10.0,12,0.00,,,0.00,884.000000,,2013-03-23 21:22:00,
2013-03-23 14:32:00,54.0,3.0,-100.00,WSW,258,5.0,10.0,12,0.00,,,0.00,884.000000,,2013-03-23 21:32:00,
2013-03-23 14:43:00,54.0,3.0,-100.00,WSW,258,5.0,10.0,12,0.00,,,0.00,884.000000,,2013-03-23 21:43:00,
2013-03-23 14:51:00,53.0,7.0,-100.00,South,189,4.0,13.0,15,0.00,,,0.00,808.000000,,2013-03-23 21:51:00,
2013-03-23 15:12:00,53.0,7.0,-100.00,South,189,4.0,13.0,15,0.00,,,0.00,808.000000,,2013-03-23 22:12:00,
2013-03-23 15:23:00,53.0,7.0,-100.00,South,189,4.0,13.0,15,0.00,,,0.00,808.000000,,2013-03-23 22:23:00,
2013-03-23 15:32:00,53.0,7.0,-100.00,South,189,4.0,13.0,15,0.00,,,0.00,808.000000,,2013-03-23 22:32:00,
2013-03-23 15:42:00,53.0,7.0,-100.00,South,189,4.0,13.0,15,0.00,,,0.00,808.000000,,2013-03-23 22:42:00,
2013-03-23 15:51:00,53.0,12.0,-100.00,SW,216,5.0,11.0,19,0.00,,,0.00,686.000000,,2013-03-23 22:51:00,
2013-03-23 16:12:00,53.0,12.0,-100.00,SW,216,5.0,11.0,19,0.00,,,0.00,686.000000,,2013-03-23 23:12:00,
2013-03-23 16:22:00,53.0,12.0,-100.00,SW,216,5.0,11.0,19,0.00,,,0.00,686.000000,,2013-03-23 23:22:00,
2013-03-23 16:32:00,53.0,12.0,-100.00,SW,216,5.0,11.0,19,0.00,,,0.00,686.000000,,2013-03-23 23:32:00,
2013-03-23 16:42:00,53.0,12.0,-100.00,SW,216,5.0,11.0,19,0.00,,,0.00,686.000000,,2013-03-23 23:42:00,
2013-03-23 16:51:00,52.0,15.0,-100.00,SW,221,5.0,15.0,23,0.00,,,0.00,525.000000,,2013-03-23 23:51:00,
2013-03-23 17:22:00,52.0,15.0,-100.00,SW,221,5.0,15.0,23,0.00,,,0.00,525.000000,,2013-03-24 00:22:00,
2013-03-23 17:32:00,52.0,15.0,-100.00,SW,221,5.0,15.0,23,0.00,,,0.00,525.000000,,2013-03-24 00:32:00,
2013-03-23 17:42:00,52.0,15.0,-100.00,SW,221,5.0,15.0,23,0.00,,,0.00,525.000000,,2013-03-24 00:42:00,
2013-03-23 17:51:00,50.0,13.0,-100.00,SW,236,5.0,13.0,22,0.00,,,0.00,336.000000,,2013-03-24 00:51:00,
2013-03-23 18:12:00,50.0,13.0,-100.00,SW,236,5.0,13.0,22,0.00,,,0.00,336.000000,,2013-03-24 01:12:00,
2013-03-23 18:22:00,50.0,13.0,-100.00,SW,236,5.0,13.0,22,0.00,,,0.00,336.000000,,2013-03-24 01:22:00,
2013-03-23 18:32:00,50.0,13.0,-100.00,SW,236,5.0,13.0,22,0.00,,,0.00,336.000000,,2013-03-24 01:32:00,
2013-03-23 18:42:00,50.0,13.0,-100.00,SW,236,5.0,13.0,22,0.00,,,0.00,336.000000,,2013-03-24 01:42:00,
2013-03-23 18:51:00,44.0,15.0,-100.00,SW,220,4.0,13.0,31,0.00,,,0.00,90.000000,,2013-03-24 01:51:00,
2013-03-23 19:22:00,44.0,15.0,-100.00,SW,220,4.0,13.0,31,0.00,,,0.00,90.000000,,2013-03-24 02:22:00,
2013-03-23 19:32:00,44.0,15.0,-100.00,SW,220,4.0,13.0,31,0.00,,,0.00,90.000000,,2013-03-24 02:32:00,
2013-03-23 19:42:00,44.0,15.0,-100.00,SW,220,4.0,13.0,31,0.00,,,0.00,90.000000,,2013-03-24 02:42:00,
2013-03-23 19:51:00,40.0,16.0,-100.00,ESE,121,3.0,7.0,38,0.00,,,0.00,6.000000,,2013-03-24 02:51:00,
2013-03-23 20:12:00,40.0,16.0,-100.00,ESE,121,3.0,7.0,38,0.00,,,0.00,6.000000,,2013-03-24 03:12:00,
2013-03-23 20:22:00,40.0,16.0,-100.00,ESE,121,3.0,7.0,38,0.00,,,0.00,6.000000,,2013-03-24 03:22:00,
2013-03-23 20:33:00,40.0,16.0,-100.00,ESE,121,3.0,7.0,38,0.00,,,0.00,6.000000,,2013-03-24 03:33:00,
2013-03-23 20:42:00,40.0,16.0,-100.00,ESE,121,3.0,7.0,38,0.00,,,0.00,6.000000,,2013-03-24 03:42:00,
2013-03-23 20:51:00,37.0,19.0,-100.00,South,181,2.0,6.0,47,0.00,,,0.00,1.000000,,2013-03-24 03:51:00,
2013-03-23 21:12:00,37.0,19.0,-100.00,South,181,2.0,6.0,47,0.00,,,0.00,1.000000,,2013-03-24 04:12:00,
2013-03-23 21:22:00,37.0,19.0,-100.00,South,181,2.0,6.0,47,0.00,,,0.00,1.000000,,2013-03-24 04:22:00,
2013-03-23 21:32:00,37.0,19.0,-100.00,South,181,2.0,6.0,47,0.00,,,0.00,1.000000,,2013-03-24 04:32:00,
2013-03-23 21:42:00,37.0,19.0,-100.00,South,181,2.0,6.0,47,0.00,,,0.00,1.000000,,2013-03-24 04:42:00,
2013-03-23 21:51:00,37.0,20.0,-100.00,South,177,2.0,9.0,49,0.00,,,0.00,1.000000,,2013-03-24 04:51:00,
2013-03-23 22:12:00,37.0,20.0,-100.00,South,177,2.0,9.0,49,0.00,,,0.00,1.000000,,2013-03-24 05:12:00,
2013-03-23 22:22:00,37.0,20.0,-100.00,South,177,2.0,9.0,49,0.00,,,0.00,1.000000,,2013-03-24 05:22:00,
2013-03-23 22:32:00,37.0,20.0,-100.00,South,177,2.0,9.0,49,0.00,,,0.00,1.000000,,2013-03-24 05:32:00,
2013-03-23 22:51:00,32.0,22.0,-100.00,NNW,331,1.0,6.0,66,0.00,,,0.00,1.000000,,2013-03-24 05:51:00,
2013-03-23 23:22:00,32.0,22.0,-100.00,NNW,331,1.0,6.0,66,0.00,,,0.00,1.000000,,2013-03-24 06:22:00,
2013-03-23 23:32:00,32.0,22.0,-100.00,NNW,331,1.0,6.0,66,0.00,,,0.00,1.000000,,2013-03-24 06:32:00,
2013-03-23 23:42:00,32.0,22.0,-100.00,NNW,331,1.0,6.0,66,0.00,,,0.00,1.000000,,2013-03-24 06:42:00,
2013-03-23 23:51:00,27.0,20.0,-100.00,NE,42,1.0,2.0,76,0.00,,,0.00,1.000000,,2013-03-24 06:51:00,